createdAt,value
2022-10-20T00:01:04.799Z,59.29
2022-10-20T00:03:32.670Z,59.09
2022-10-20T00:06:07.977Z,59.28
2022-10-20T00:08:35.912Z,59.15
2022-10-20T00:11:03.894Z,58.97
2022-10-20T00:13:33.197Z,59.14
2022-10-20T00:16:01.428Z,58.92
2022-10-20T00:18:29.316Z,58.91
2022-10-20T00:20:57.257Z,59.06
2022-10-20T00:23:25.109Z,59.00
2022-10-20T00:26:02.137Z,59.09
2022-10-20T00:28:30.067Z,58.70
2022-10-20T00:30:59.349Z,58.93
2022-10-20T00:33:27.621Z,58.86
2022-10-20T00:35:55.476Z,59.12
2022-10-20T00:38:23.338Z,59.05
2022-10-20T00:40:51.262Z,58.96
2022-10-20T00:43:19.097Z,58.72
2022-10-20T00:45:52.066Z,59.14
2022-10-20T00:48:22.253Z,58.86
2022-10-20T00:50:50.963Z,58.81
2022-10-20T00:53:18.936Z,59.01
2022-10-20T00:55:48.316Z,58.79
2022-10-20T00:58:16.177Z,58.87
2022-10-20T01:00:44.616Z,58.95
2022-10-20T01:03:14.571Z,58.78
2022-10-20T01:05:43.803Z,58.63
2022-10-20T01:08:11.689Z,58.77
2022-10-20T01:10:42.512Z,58.87
2022-10-20T01:13:13.459Z,58.87
2022-10-20T01:15:44.190Z,58.71
2022-10-20T01:18:14.165Z,58.78
2022-10-20T01:21:13.292Z,58.76
2022-10-20T01:24:03.763Z,58.77
2022-10-20T01:27:13.204Z,58.85
2022-10-20T01:29:43.600Z,58.74
2022-10-20T01:32:13.921Z,59.11
2022-10-20T01:34:46.912Z,59.01
2022-10-20T01:37:28.412Z,58.59
2022-10-20T01:40:10.089Z,58.76
2022-10-20T01:42:37.964Z,58.93
2022-10-20T01:45:08.468Z,59.08
2022-10-20T01:47:36.787Z,58.85
2022-10-20T01:50:05.315Z,58.89
2022-10-20T01:52:33.346Z,58.90
2022-10-20T01:55:01.486Z,58.72
2022-10-20T01:57:37.092Z,58.84
2022-10-20T02:00:08.526Z,58.79
2022-10-20T02:02:44.094Z,59.10
2022-10-20T02:05:19.323Z,59.09
2022-10-20T02:07:47.177Z,58.73
2022-10-20T02:10:17.943Z,58.75
2022-10-20T02:12:47.235Z,58.74
2022-10-20T02:15:19.029Z,58.76
2022-10-20T02:17:46.933Z,58.77
2022-10-20T02:20:14.784Z,59.08
2022-10-20T02:22:42.671Z,58.74
2022-10-20T02:25:11.907Z,59.03
2022-10-20T02:27:41.892Z,58.77
2022-10-20T02:30:10.984Z,58.68
2022-10-20T02:32:41.324Z,59.18
2022-10-20T02:35:12.135Z,59.11
2022-10-20T02:37:40.276Z,58.98
2022-10-20T02:40:09.357Z,59.26
2022-10-20T02:42:37.586Z,59.11
2022-10-20T02:45:06.196Z,58.79
2022-10-20T02:47:34.432Z,59.18
2022-10-20T02:50:03.906Z,58.98
2022-10-20T02:52:31.758Z,58.82
2022-10-20T02:54:59.601Z,58.83
2022-10-20T02:57:27.662Z,58.81
2022-10-20T02:59:55.515Z,58.73
2022-10-20T03:02:23.398Z,58.80
2022-10-20T03:04:51.280Z,59.05
2022-10-20T03:07:20.569Z,58.83
2022-10-20T03:09:48.956Z,58.81
2022-10-20T03:12:16.847Z,58.63
2022-10-20T03:14:45.464Z,59.07
2022-10-20T03:17:13.374Z,58.66
2022-10-20T03:19:41.443Z,58.92
2022-10-20T03:22:09.365Z,59.13
2022-10-20T03:24:38.565Z,58.81
2022-10-20T03:27:06.501Z,58.95
2022-10-20T03:29:34.376Z,58.87
2022-10-20T03:32:02.241Z,58.92
2022-10-20T03:34:30.118Z,59.02
2022-10-20T03:36:58.001Z,58.94
2022-10-20T03:39:25.880Z,59.20
2022-10-20T03:41:56.078Z,59.15
2022-10-20T03:44:23.943Z,58.94
2022-10-20T03:46:51.792Z,59.10
2022-10-20T03:49:19.678Z,58.95
2022-10-20T03:51:47.530Z,59.12
2022-10-20T03:54:15.364Z,59.45
2022-10-20T03:56:43.224Z,59.44
2022-10-20T03:59:12.464Z,59.28
2022-10-20T04:01:40.406Z,59.35
2022-10-20T04:04:08.316Z,59.08
2022-10-20T04:06:36.166Z,59.41
2022-10-20T04:09:04.956Z,58.88
2022-10-20T04:11:32.893Z,59.09
2022-10-20T04:14:00.750Z,58.81
2022-10-20T04:16:29.979Z,59.03
2022-10-20T04:18:57.870Z,58.75
2022-10-20T04:21:26.406Z,58.87
2022-10-20T04:23:54.284Z,58.91
2022-10-20T04:26:22.123Z,58.79
2022-10-20T04:28:50.008Z,59.10
2022-10-20T04:31:17.902Z,58.90
2022-10-20T04:33:47.998Z,58.81
2022-10-20T04:36:15.929Z,58.80
2022-10-20T04:38:43.810Z,58.84
2022-10-20T04:41:11.756Z,58.88
2022-10-20T04:43:39.600Z,58.78
2022-10-20T04:46:08.836Z,58.77
2022-10-20T04:48:37.152Z,58.88
2022-10-20T04:51:07.784Z,58.66
2022-10-20T04:53:35.791Z,58.76
2022-10-20T04:56:04.081Z,58.87
2022-10-20T04:58:32.041Z,58.85
2022-10-20T05:01:01.997Z,58.88
2022-10-20T05:03:29.862Z,58.62
2022-10-20T05:06:10.177Z,58.98
2022-10-20T05:08:38.506Z,58.75
2022-10-20T05:11:06.681Z,58.96
2022-10-20T05:13:34.623Z,58.62
2022-10-20T05:16:02.497Z,58.98
2022-10-20T05:18:30.506Z,59.02
2022-10-20T05:21:08.278Z,59.24
2022-10-20T05:23:38.895Z,59.38
2022-10-20T05:26:07.028Z,58.95
2022-10-20T05:28:34.933Z,59.06
2022-10-20T05:31:03.129Z,58.90
2022-10-20T05:33:30.994Z,58.95
2022-10-20T05:35:58.872Z,59.07
2022-10-20T05:38:26.779Z,59.16
2022-10-20T05:40:56.050Z,58.93
2022-10-20T05:43:23.926Z,58.94
2022-10-20T05:45:55.149Z,59.18
2022-10-20T05:48:23.038Z,59.24
2022-10-20T05:50:50.935Z,58.88
2022-10-20T05:53:18.825Z,58.96
2022-10-20T05:55:46.797Z,59.17
2022-10-20T05:58:19.591Z,58.97
2022-10-20T06:00:52.972Z,58.82
2022-10-20T06:03:23.739Z,59.13
2022-10-20T06:05:58.628Z,58.92
2022-10-20T06:08:26.547Z,59.06
2022-10-20T06:10:54.394Z,58.97
2022-10-20T06:13:23.686Z,58.83
2022-10-20T06:15:53.876Z,59.06
2022-10-20T06:18:21.721Z,58.72
2022-10-20T06:20:49.624Z,59.04
2022-10-20T06:23:17.460Z,58.82
2022-10-20T06:25:45.345Z,59.23
2022-10-20T06:28:13.218Z,59.13
2022-10-20T06:30:42.621Z,58.84
2022-10-20T06:33:12.315Z,59.04
2022-10-20T06:35:40.239Z,59.16
2022-10-20T06:38:08.090Z,59.01
2022-10-20T06:40:36.071Z,59.43
2022-10-20T06:43:04.096Z,59.01
2022-10-20T06:45:32.049Z,59.08
2022-10-20T06:48:03.161Z,59.20
2022-10-20T06:50:31.897Z,59.32
2022-10-20T06:52:59.821Z,59.46
2022-10-20T06:55:27.656Z,59.53
2022-10-20T06:57:55.520Z,59.79
2022-10-20T07:00:23.424Z,59.32
2022-10-20T07:02:51.316Z,59.65
2022-10-20T07:05:21.959Z,59.82
2022-10-20T07:07:51.688Z,59.79
2022-10-20T07:10:19.542Z,59.89
2022-10-20T07:12:47.433Z,59.57
2022-10-20T07:15:15.436Z,59.86
2022-10-20T07:17:43.316Z,59.88
2022-10-20T07:20:11.552Z,59.56
2022-10-20T07:22:40.773Z,59.66
2022-10-20T07:25:09.477Z,59.76
2022-10-20T07:27:37.781Z,59.47
2022-10-20T07:30:07.607Z,59.62
2022-10-20T07:32:37.890Z,59.87
2022-10-20T07:35:08.009Z,59.49
2022-10-20T07:37:36.026Z,59.79
2022-10-20T07:40:06.530Z,59.70
2022-10-20T07:42:34.684Z,59.57
2022-10-20T07:45:02.862Z,59.66
2022-10-20T07:47:34.140Z,59.22
2022-10-20T07:50:04.963Z,59.22
2022-10-20T07:52:32.876Z,59.62
2022-10-20T07:55:12.307Z,59.55
2022-10-20T07:57:46.867Z,59.47
2022-10-20T08:00:15.043Z,59.22
2022-10-20T08:02:45.260Z,59.05
2022-10-20T08:05:13.227Z,59.01
2022-10-20T08:07:43.500Z,59.09
2022-10-20T08:10:11.584Z,59.45
2022-10-20T08:12:39.498Z,59.42
2022-10-20T08:15:09.828Z,59.05
2022-10-20T08:17:37.841Z,59.29
2022-10-20T08:20:10.730Z,58.92
2022-10-20T08:22:39.147Z,59.11
2022-10-20T08:25:08.119Z,58.89
2022-10-20T08:27:35.997Z,59.15
2022-10-20T08:30:23.035Z,59.15
2022-10-20T08:32:53.715Z,59.06
2022-10-20T08:35:21.728Z,58.94
2022-10-20T08:37:49.609Z,58.81
2022-10-20T08:40:18.327Z,58.68
2022-10-20T08:42:46.460Z,58.77
2022-10-20T08:45:15.872Z,58.73
2022-10-20T08:47:43.742Z,58.83
2022-10-20T08:50:13.892Z,58.64
2022-10-20T08:52:42.008Z,58.87
2022-10-20T08:55:12.461Z,58.68
2022-10-20T08:57:40.679Z,58.54
2022-10-20T09:00:15.472Z,58.78
2022-10-20T09:02:43.413Z,58.68
2022-10-20T09:05:15.395Z,58.60
2022-10-20T09:07:48.522Z,58.53
2022-10-20T09:10:24.256Z,58.63
2022-10-20T09:12:52.202Z,58.36
2022-10-20T09:15:21.004Z,58.19
2022-10-20T09:17:50.859Z,58.15
2022-10-20T09:20:22.103Z,58.13
2022-10-20T09:22:49.963Z,58.12
2022-10-20T09:25:19.196Z,58.14
2022-10-20T09:27:47.162Z,58.12
2022-10-20T09:30:17.376Z,58.22
2022-10-20T09:32:47.030Z,58.15
2022-10-20T09:35:27.794Z,58.29
2022-10-20T09:37:58.951Z,57.86
2022-10-20T09:40:27.218Z,58.22
2022-10-20T09:42:55.985Z,57.87
2022-10-20T09:45:24.762Z,57.99
2022-10-20T09:47:53.696Z,57.93
2022-10-20T09:50:24.756Z,58.09
2022-10-20T09:52:52.663Z,58.25
2022-10-20T09:55:27.735Z,58.10
2022-10-20T09:57:55.774Z,58.15
2022-10-20T10:00:36.779Z,58.06
2022-10-20T10:03:19.953Z,57.83
2022-10-20T10:05:50.661Z,57.84
2022-10-20T10:08:18.758Z,57.59
2022-10-20T10:10:47.306Z,57.81
2022-10-20T10:13:25.033Z,57.52
2022-10-20T10:16:04.434Z,57.45
2022-10-20T10:18:32.304Z,57.51
2022-10-20T10:21:03.236Z,57.48
2022-10-20T10:23:31.659Z,57.44
2022-10-20T10:26:02.232Z,57.12
2022-10-20T10:28:35.713Z,57.11
2022-10-20T10:31:22.696Z,57.09
2022-10-20T10:33:56.306Z,56.99
2022-10-20T10:36:31.181Z,56.81
2022-10-20T10:38:59.779Z,56.92
2022-10-20T10:41:42.780Z,56.67
2022-10-20T10:44:12.421Z,56.66
2022-10-20T10:49:43.744Z,56.79
2022-10-20T10:52:21.472Z,56.43
2022-10-20T10:54:59.189Z,56.55
2022-10-20T10:57:31.226Z,56.49
2022-10-20T11:00:01.086Z,56.58
2022-10-20T11:02:56.839Z,56.48
2022-10-20T11:05:28.991Z,56.57
2022-10-20T11:08:04.294Z,56.38
2022-10-20T11:10:35.215Z,56.29
2022-10-20T11:13:16.014Z,56.14
2022-10-20T11:15:59.785Z,56.07
2022-10-20T11:18:45.582Z,55.99
2022-10-20T11:21:20.817Z,55.73
2022-10-20T11:24:05.162Z,55.74
2022-10-20T11:26:33.768Z,56.29
2022-10-20T11:29:02.099Z,57.10
2022-10-20T11:31:31.705Z,56.79
2022-10-20T11:34:02.924Z,56.94
2022-10-20T11:36:33.631Z,58.62
2022-10-20T11:39:04.230Z,57.43
2022-10-20T11:41:35.215Z,56.12
2022-10-20T11:44:04.655Z,54.69
2022-10-20T11:46:35.934Z,53.80
2022-10-20T11:49:04.923Z,52.89
2022-10-20T11:51:45.237Z,51.35
2022-10-20T11:54:52.072Z,50.02
2022-10-20T11:57:25.131Z,49.23
2022-10-20T12:00:12.600Z,47.82
2022-10-20T12:03:13.149Z,46.55
2022-10-20T12:05:56.713Z,45.08
2022-10-20T12:08:35.175Z,44.58
2022-10-20T12:11:07.358Z,43.03
2022-10-20T12:13:40.179Z,42.00
2022-10-20T12:16:08.088Z,41.13
2022-10-20T12:18:36.668Z,41.93
2022-10-20T12:21:04.644Z,43.27
2022-10-20T12:23:55.033Z,42.88
2022-10-20T12:26:42.371Z,43.48
2022-10-20T12:29:52.176Z,42.35
2022-10-20T12:32:41.452Z,41.16
2022-10-20T12:35:32.489Z,40.19
2022-10-20T12:38:02.425Z,40.25
2022-10-20T12:40:32.020Z,39.28
2022-10-20T12:43:01.216Z,38.84
2022-10-20T12:45:36.188Z,37.92
2022-10-20T12:48:04.136Z,37.34
2022-10-20T12:50:34.797Z,36.25
2022-10-20T12:53:12.078Z,35.22
2022-10-20T12:55:41.908Z,35.60
2022-10-20T12:58:27.461Z,34.23
2022-10-20T13:01:09.261Z,33.75
2022-10-20T13:03:39.390Z,33.30
2022-10-20T13:06:41.247Z,33.95
2022-10-20T13:09:22.452Z,33.99
2022-10-20T13:11:57.106Z,34.64
2022-10-20T13:14:51.278Z,33.96
2022-10-20T13:17:25.445Z,34.24
2022-10-20T13:20:01.182Z,34.30
2022-10-20T13:22:43.224Z,33.71
2022-10-20T13:25:30.842Z,33.37
2022-10-20T13:28:15.993Z,32.08
2022-10-20T13:31:03.192Z,32.66
2022-10-20T13:33:51.555Z,32.94
2022-10-20T13:36:23.385Z,32.89
2022-10-20T13:38:53.932Z,32.84
2022-10-20T13:41:24.165Z,33.15
2022-10-20T13:43:57.764Z,33.15
2022-10-20T13:46:35.839Z,32.49
2022-10-20T13:49:11.858Z,32.28
2022-10-20T13:51:44.968Z,32.66
2022-10-20T13:54:17.579Z,33.32
2022-10-20T13:56:47.680Z,33.27
2022-10-20T14:01:54.122Z,32.53
2022-10-20T14:04:26.149Z,32.03
2022-10-20T14:06:54.080Z,31.55
2022-10-20T14:09:23.356Z,32.09
2022-10-20T14:11:53.173Z,33.06
2022-10-20T14:14:22.900Z,33.49
2022-10-20T14:16:55.353Z,34.75
2022-10-20T14:19:27.756Z,34.89
2022-10-20T14:21:56.301Z,35.41
2022-10-20T14:24:33.887Z,35.86
2022-10-20T14:27:02.364Z,36.82
2022-10-20T14:29:31.236Z,37.14
2022-10-20T14:32:00.499Z,36.02
2022-10-20T14:34:29.801Z,35.66
2022-10-20T14:36:57.737Z,35.89
2022-10-20T14:39:32.930Z,34.85
2022-10-20T14:42:01.391Z,34.82
2022-10-20T14:44:31.802Z,34.31
2022-10-20T14:47:06.114Z,35.17
2022-10-20T14:49:35.266Z,35.69
2022-10-20T14:52:03.579Z,35.79
2022-10-20T14:54:37.095Z,35.65
2022-10-20T14:57:33.279Z,34.20
2022-10-20T15:00:03.262Z,33.81
2022-10-20T15:02:33.852Z,33.44
2022-10-20T15:05:25.449Z,33.67
2022-10-20T15:08:04.716Z,34.45
2022-10-20T15:10:38.697Z,35.31
2022-10-20T15:15:43.825Z,36.81
2022-10-20T15:18:16.444Z,37.81
2022-10-20T15:20:45.658Z,37.96
2022-10-20T15:23:15.479Z,38.78
2022-10-20T15:25:48.359Z,38.85
2022-10-20T15:28:37.852Z,39.43
2022-10-20T15:31:06.942Z,39.52
2022-10-20T15:33:36.230Z,39.72
2022-10-20T15:36:04.152Z,39.83
2022-10-20T15:38:32.029Z,39.93
2022-10-20T15:43:33.881Z,40.42
2022-10-20T15:46:01.825Z,40.57
2022-10-20T15:48:29.701Z,41.11
2022-10-20T15:50:59.392Z,41.24
2022-10-20T15:53:27.341Z,41.47
2022-10-20T15:55:55.231Z,41.80
2022-10-20T15:58:23.160Z,42.16
2022-10-20T16:00:51.145Z,42.12
2022-10-20T16:03:19.643Z,42.37
2022-10-20T16:05:47.616Z,42.55
2022-10-20T16:08:16.909Z,42.73
2022-10-20T16:10:45.233Z,42.82
2022-10-20T16:13:13.089Z,42.87
2022-10-20T16:15:40.976Z,43.25
2022-10-20T16:18:09.934Z,43.28
2022-10-20T16:20:38.607Z,43.34
2022-10-20T16:23:06.505Z,43.44
2022-10-20T16:25:35.777Z,43.75
2022-10-20T16:28:03.647Z,43.94
2022-10-20T16:30:31.616Z,44.16
2022-10-20T16:32:59.549Z,44.35
2022-10-20T16:35:27.671Z,44.57
2022-10-20T16:37:55.570Z,44.74
2022-10-20T16:40:23.441Z,44.82
2022-10-20T16:42:52.685Z,44.92
2022-10-20T16:45:20.665Z,45.24
2022-10-20T16:47:48.550Z,45.46
2022-10-20T16:50:17.713Z,45.39
2022-10-20T16:52:45.593Z,45.64
2022-10-20T16:55:13.572Z,45.89
2022-10-20T16:57:41.550Z,45.99
2022-10-20T17:00:12.012Z,46.28
2022-10-20T17:02:42.970Z,46.20
2022-10-20T17:05:11.118Z,46.31
2022-10-20T17:07:39.512Z,46.29
2022-10-20T17:10:08.460Z,46.62
2022-10-20T17:12:36.320Z,46.69
2022-10-20T17:15:04.418Z,46.78
2022-10-20T17:17:33.681Z,47.05
2022-10-20T17:20:01.563Z,47.42
2022-10-20T17:22:29.455Z,47.61
2022-10-20T17:24:57.322Z,48.01
2022-10-20T17:27:27.971Z,48.18
2022-10-20T17:29:55.833Z,48.37
2022-10-20T17:32:23.670Z,48.70
2022-10-20T17:34:52.992Z,48.96
2022-10-20T17:37:20.877Z,49.35
2022-10-20T17:39:48.715Z,49.46
2022-10-20T17:42:16.603Z,49.43
2022-10-20T17:44:44.855Z,49.35
2022-10-20T17:47:12.740Z,49.23
2022-10-20T17:49:40.595Z,49.47
2022-10-20T17:52:09.904Z,49.22
2022-10-20T17:54:37.773Z,49.73
2022-10-20T17:57:05.776Z,49.88
2022-10-20T17:59:38.303Z,50.40
2022-10-20T18:02:15.431Z,50.24
2022-10-20T18:04:43.317Z,50.65
2022-10-20T18:07:12.610Z,50.93
2022-10-20T18:09:40.637Z,51.04
2022-10-20T18:12:08.606Z,51.32
2022-10-20T18:14:36.485Z,51.30
2022-10-20T18:17:04.341Z,51.50
2022-10-20T18:19:32.269Z,51.37
2022-10-20T18:22:01.230Z,51.49
2022-10-20T18:24:30.681Z,51.68
2022-10-20T18:26:58.865Z,52.09
2022-10-20T18:29:26.766Z,52.07
2022-10-20T18:31:54.648Z,52.14
2022-10-20T18:34:22.560Z,52.33
2022-10-20T18:36:50.759Z,52.70
2022-10-20T18:39:18.620Z,52.64
2022-10-20T18:41:47.874Z,52.79
2022-10-20T18:44:16.569Z,53.00
2022-10-20T18:46:44.503Z,52.52
2022-10-20T18:49:13.158Z,52.59
2022-10-20T18:51:41.070Z,52.71
2022-10-20T18:54:09.405Z,52.74
2022-10-20T18:56:37.654Z,52.98
2022-10-20T18:59:08.495Z,53.43
2022-10-20T19:01:37.280Z,53.66
2022-10-20T19:04:05.427Z,53.74
2022-10-20T19:06:33.937Z,53.65
2022-10-20T19:09:02.786Z,54.08
2022-10-20T19:11:32.047Z,54.55
2022-10-20T19:14:00.023Z,54.79
2022-10-20T19:16:29.936Z,54.95
2022-10-20T19:18:58.771Z,54.68
2022-10-20T19:21:26.798Z,54.71
2022-10-20T19:23:57.577Z,55.08
2022-10-20T19:26:26.473Z,55.20
2022-10-20T19:28:58.646Z,55.24
2022-10-20T19:31:29.784Z,55.21
2022-10-20T19:33:58.749Z,55.34
2022-10-20T19:36:26.802Z,55.71
2022-10-20T19:38:54.672Z,55.88
2022-10-20T19:41:22.730Z,56.11
2022-10-20T19:43:50.769Z,55.98
2022-10-20T19:46:19.264Z,56.05
2022-10-20T19:48:48.767Z,56.10
2022-10-20T19:51:17.058Z,56.02
2022-10-20T19:53:45.106Z,56.25
2022-10-20T19:56:13.127Z,56.00
2022-10-20T19:58:44.056Z,56.35
2022-10-20T20:01:14.430Z,56.49
2022-10-20T20:03:42.361Z,56.36
2022-10-20T20:06:16.179Z,56.56
2022-10-20T20:08:44.726Z,57.06
2022-10-20T20:11:13.817Z,57.05
2022-10-20T20:13:41.680Z,57.19
2022-10-20T20:16:09.732Z,57.01
2022-10-20T20:18:37.599Z,57.17
2022-10-20T20:21:05.971Z,57.01
2022-10-20T20:23:47.567Z,57.30
2022-10-20T20:26:23.245Z,57.49
2022-10-20T20:28:52.869Z,57.29
2022-10-20T20:31:20.783Z,57.40
2022-10-20T20:33:48.678Z,57.65
2022-10-20T20:36:16.550Z,57.56
2022-10-20T20:38:45.792Z,57.75
2022-10-20T20:41:14.741Z,58.05
2022-10-20T20:43:45.094Z,58.15
2022-10-20T20:46:14.095Z,58.00
2022-10-20T20:48:42.005Z,57.77
2022-10-20T20:51:09.852Z,58.20
2022-10-20T20:53:37.804Z,58.01
2022-10-20T20:56:08.253Z,58.29
2022-10-20T20:58:36.159Z,57.81
2022-10-20T21:01:04.305Z,58.06
2022-10-20T21:03:32.414Z,58.11
2022-10-20T21:06:04.030Z,58.03
2022-10-20T21:08:33.191Z,57.86
2022-10-20T21:11:07.487Z,57.75
2022-10-20T21:13:35.631Z,58.21
2022-10-20T21:16:10.970Z,57.91
2022-10-20T21:18:39.032Z,58.33
2022-10-20T21:23:44.459Z,57.71
2022-10-20T21:26:14.457Z,58.08
2022-10-20T21:28:42.502Z,57.96
2022-10-20T21:31:12.053Z,58.18
2022-10-20T21:33:39.880Z,58.14
2022-10-20T21:36:08.728Z,57.80
2022-10-20T21:38:37.548Z,58.04
2022-10-20T21:41:05.649Z,58.15
2022-10-20T21:43:35.065Z,58.07
2022-10-20T21:46:11.741Z,58.20
2022-10-20T21:48:39.641Z,58.31
2022-10-20T21:51:09.161Z,58.25
2022-10-20T21:53:37.077Z,58.42
2022-10-20T21:56:05.116Z,58.28
2022-10-20T21:58:34.597Z,58.23
2022-10-20T22:01:08.914Z,58.40
2022-10-20T22:03:36.748Z,57.99
2022-10-20T22:06:04.679Z,57.90
2022-10-20T22:08:32.617Z,57.88
2022-10-20T22:11:03.574Z,58.21
2022-10-20T22:13:32.119Z,58.00
2022-10-20T22:16:01.431Z,57.91
2022-10-20T22:18:29.287Z,57.87
2022-10-20T22:20:57.148Z,57.87
2022-10-20T22:23:25.068Z,57.35
2022-10-20T22:25:53.960Z,57.65
2022-10-20T22:28:21.819Z,57.80
2022-10-20T22:30:49.694Z,57.70
2022-10-20T22:33:18.995Z,57.70
2022-10-20T22:35:46.831Z,57.40
2022-10-20T22:38:14.748Z,57.82
2022-10-20T22:40:42.649Z,57.45
2022-10-20T22:43:10.541Z,57.65
2022-10-20T22:45:38.379Z,57.72
2022-10-20T22:48:06.705Z,57.49
2022-10-20T22:50:35.948Z,57.79
2022-10-20T22:53:03.813Z,57.66
2022-10-20T22:55:31.664Z,57.69
2022-10-20T23:00:32.354Z,58.01
2022-10-20T23:03:00.188Z,57.84
2022-10-20T23:05:28.065Z,57.65
2022-10-20T23:07:57.340Z,57.82
2022-10-20T23:10:25.185Z,57.49
2022-10-20T23:12:53.016Z,57.60
2022-10-20T23:15:20.875Z,57.34
2022-10-20T23:17:48.749Z,57.73
2022-10-20T23:20:16.623Z,57.60
2022-10-20T23:22:44.513Z,57.68
2022-10-20T23:25:13.789Z,57.64
2022-10-20T23:27:41.652Z,57.69
2022-10-20T23:30:10.209Z,57.44
2022-10-20T23:32:38.101Z,57.70
2022-10-20T23:35:07.255Z,57.91
2022-10-20T23:37:36.868Z,57.98
2022-10-20T23:40:05.712Z,57.81
2022-10-20T23:42:34.993Z,58.04
2022-10-20T23:45:03.182Z,57.78
2022-10-20T23:47:31.003Z,58.16
2022-10-20T23:49:58.905Z,57.77
2022-10-20T23:52:26.843Z,57.94
2022-10-20T23:54:54.761Z,57.81
2022-10-20T23:57:22.654Z,57.85
2022-10-20T23:59:51.899Z,57.90
